sensor_id;sensor_type;location;lat;lon;timestamp;P1;durP1;ratioP1;P2;durP2;ratioP2
69203;SDS011;56317;27.658;85.326;2023-05-25T00:00:50;48.92;;;23.55;;
69203;SDS011;56317;27.658;85.326;2023-05-25T00:03:17;46.13;;;24.58;;
69203;SDS011;56317;27.658;85.326;2023-05-25T00:05:44;46.72;;;24.70;;
69203;SDS011;56317;27.658;85.326;2023-05-25T00:08:13;42.13;;;24.92;;
69203;SDS011;56317;27.658;85.326;2023-05-25T00:10:43;44.67;;;24.38;;
69203;SDS011;56317;27.658;85.326;2023-05-25T00:13:10;48.67;;;23.90;;
69203;SDS011;56317;27.658;85.326;2023-05-25T00:15:37;43.58;;;26.75;;
69203;SDS011;56317;27.658;85.326;2023-05-25T00:18:05;51.85;;;26.50;;
69203;SDS011;56317;27.658;85.326;2023-05-25T00:20:33;50.92;;;26.70;;
69203;SDS011;56317;27.658;85.326;2023-05-25T00:23:00;50.83;;;27.20;;
69203;SDS011;56317;27.658;85.326;2023-05-25T00:25:27;52.55;;;28.80;;
69203;SDS011;56317;27.658;85.326;2023-05-25T00:27:55;45.45;;;25.60;;
69203;SDS011;56317;27.658;85.326;2023-05-25T00:30:28;48.05;;;26.63;;
69203;SDS011;56317;27.658;85.326;2023-05-25T00:32:56;42.50;;;23.02;;
69203;SDS011;56317;27.658;85.326;2023-05-25T00:35:24;36.78;;;22.88;;
69203;SDS011;56317;27.658;85.326;2023-05-25T00:37:51;42.08;;;23.52;;
69203;SDS011;56317;27.658;85.326;2023-05-25T00:40:18;42.67;;;23.48;;
69203;SDS011;56317;27.658;85.326;2023-05-25T00:42:46;41.00;;;23.08;;
69203;SDS011;56317;27.658;85.326;2023-05-25T00:45:13;36.85;;;21.88;;
69203;SDS011;56317;27.658;85.326;2023-05-25T00:47:41;41.72;;;21.67;;
69203;SDS011;56317;27.658;85.326;2023-05-25T00:50:09;38.45;;;21.23;;
69203;SDS011;56317;27.658;85.326;2023-05-25T00:52:41;33.25;;;21.38;;
69203;SDS011;56317;27.658;85.326;2023-05-25T00:55:09;40.78;;;21.75;;
69203;SDS011;56317;27.658;85.326;2023-05-25T00:57:39;38.95;;;20.42;;
69203;SDS011;56317;27.658;85.326;2023-05-25T01:00:11;40.35;;;20.77;;
69203;SDS011;56317;27.658;85.326;2023-05-25T01:02:40;35.63;;;20.15;;
69203;SDS011;56317;27.658;85.326;2023-05-25T01:05:10;39.55;;;21.90;;
69203;SDS011;56317;27.658;85.326;2023-05-25T01:07:39;44.75;;;22.42;;
69203;SDS011;56317;27.658;85.326;2023-05-25T01:10:09;43.03;;;22.65;;
69203;SDS011;56317;27.658;85.326;2023-05-25T01:12:39;40.17;;;22.70;;
69203;SDS011;56317;27.658;85.326;2023-05-25T01:15:09;41.33;;;22.70;;
69203;SDS011;56317;27.658;85.326;2023-05-25T01:17:37;39.50;;;20.98;;
69203;SDS011;56317;27.658;85.326;2023-05-25T01:20:05;39.20;;;22.83;;
69203;SDS011;56317;27.658;85.326;2023-05-25T01:22:41;37.95;;;21.38;;
69203;SDS011;56317;27.658;85.326;2023-05-25T01:25:15;36.42;;;22.55;;
69203;SDS011;56317;27.658;85.326;2023-05-25T01:27:55;33.70;;;20.67;;
69203;SDS011;56317;27.658;85.326;2023-05-25T01:30:27;36.65;;;20.25;;
69203;SDS011;56317;27.658;85.326;2023-05-25T01:32:56;36.10;;;21.23;;
69203;SDS011;56317;27.658;85.326;2023-05-25T01:35:26;37.15;;;22.42;;
69203;SDS011;56317;27.658;85.326;2023-05-25T01:37:53;45.20;;;24.17;;
69203;SDS011;56317;27.658;85.326;2023-05-25T01:40:20;49.95;;;24.95;;
69203;SDS011;56317;27.658;85.326;2023-05-25T01:42:48;45.75;;;24.05;;
69203;SDS011;56317;27.658;85.326;2023-05-25T01:45:18;39.70;;;24.13;;
69203;SDS011;56317;27.658;85.326;2023-05-25T01:47:56;42.28;;;22.42;;
69203;SDS011;56317;27.658;85.326;2023-05-25T01:53:23;36.70;;;20.60;;
69203;SDS011;56317;27.658;85.326;2023-05-25T01:55:59;55.38;;;28.17;;
69203;SDS011;56317;27.658;85.326;2023-05-25T01:58:32;55.20;;;26.75;;
69203;SDS011;56317;27.658;85.326;2023-05-25T02:01:03;43.42;;;24.38;;
69203;SDS011;56317;27.658;85.326;2023-05-25T02:03:32;44.65;;;26.23;;
69203;SDS011;56317;27.658;85.326;2023-05-25T02:05:59;48.58;;;27.13;;
69203;SDS011;56317;27.658;85.326;2023-05-25T02:08:26;48.17;;;27.95;;
69203;SDS011;56317;27.658;85.326;2023-05-25T02:10:54;44.65;;;27.02;;
69203;SDS011;56317;27.658;85.326;2023-05-25T02:13:21;44.60;;;27.15;;
69203;SDS011;56317;27.658;85.326;2023-05-25T02:15:48;51.47;;;26.33;;
69203;SDS011;56317;27.658;85.326;2023-05-25T02:18:15;41.10;;;25.20;;
69203;SDS011;56317;27.658;85.326;2023-05-25T02:20:43;38.97;;;24.77;;
69203;SDS011;56317;27.658;85.326;2023-05-25T02:23:11;43.80;;;24.20;;
69203;SDS011;56317;27.658;85.326;2023-05-25T02:25:39;51.47;;;26.23;;
69203;SDS011;56317;27.658;85.326;2023-05-25T02:28:07;49.72;;;24.65;;
69203;SDS011;56317;27.658;85.326;2023-05-25T02:30:34;50.30;;;23.70;;
69203;SDS011;56317;27.658;85.326;2023-05-25T02:33:01;39.47;;;22.48;;
69203;SDS011;56317;27.658;85.326;2023-05-25T02:35:28;41.63;;;22.50;;
69203;SDS011;56317;27.658;85.326;2023-05-25T02:37:55;39.55;;;23.48;;
69203;SDS011;56317;27.658;85.326;2023-05-25T02:40:23;42.40;;;24.02;;
69203;SDS011;56317;27.658;85.326;2023-05-25T02:42:50;37.28;;;23.83;;
69203;SDS011;56317;27.658;85.326;2023-05-25T02:45:17;38.70;;;22.13;;
69203;SDS011;56317;27.658;85.326;2023-05-25T02:47:45;40.08;;;22.77;;
69203;SDS011;56317;27.658;85.326;2023-05-25T02:50:12;41.35;;;22.67;;
69203;SDS011;56317;27.658;85.326;2023-05-25T02:52:39;35.00;;;22.52;;
69203;SDS011;56317;27.658;85.326;2023-05-25T02:55:07;36.00;;;22.45;;
69203;SDS011;56317;27.658;85.326;2023-05-25T02:57:44;37.78;;;23.48;;
69203;SDS011;56317;27.658;85.326;2023-05-25T03:00:12;38.90;;;23.65;;
69203;SDS011;56317;27.658;85.326;2023-05-25T03:02:39;40.03;;;21.45;;
69203;SDS011;56317;27.658;85.326;2023-05-25T03:05:07;36.05;;;21.17;;
69203;SDS011;56317;27.658;85.326;2023-05-25T03:07:34;36.08;;;20.30;;
69203;SDS011;56317;27.658;85.326;2023-05-25T03:10:01;38.83;;;20.85;;
69203;SDS011;56317;27.658;85.326;2023-05-25T03:12:29;27.52;;;16.23;;
69203;SDS011;56317;27.658;85.326;2023-05-25T03:14:56;27.95;;;15.68;;
69203;SDS011;56317;27.658;85.326;2023-05-25T03:17:23;34.13;;;18.23;;
69203;SDS011;56317;27.658;85.326;2023-05-25T03:19:51;30.45;;;17.65;;
69203;SDS011;56317;27.658;85.326;2023-05-25T03:22:19;31.55;;;17.65;;
69203;SDS011;56317;27.658;85.326;2023-05-25T03:24:46;28.92;;;17.95;;
69203;SDS011;56317;27.658;85.326;2023-05-25T03:27:14;33.17;;;19.02;;
69203;SDS011;56317;27.658;85.326;2023-05-25T03:29:41;33.63;;;17.38;;
69203;SDS011;56317;27.658;85.326;2023-05-25T03:32:11;27.92;;;17.20;;
69203;SDS011;56317;27.658;85.326;2023-05-25T03:34:38;33.33;;;17.80;;
69203;SDS011;56317;27.658;85.326;2023-05-25T03:37:05;31.58;;;17.17;;
69203;SDS011;56317;27.658;85.326;2023-05-25T03:39:32;30.17;;;17.15;;
69203;SDS011;56317;27.658;85.326;2023-05-25T03:42:00;28.88;;;16.15;;
69203;SDS011;56317;27.658;85.326;2023-05-25T03:44:31;32.20;;;18.30;;
69203;SDS011;56317;27.658;85.326;2023-05-25T03:46:58;32.15;;;18.42;;
69203;SDS011;56317;27.658;85.326;2023-05-25T03:49:25;38.47;;;18.70;;
69203;SDS011;56317;27.658;85.326;2023-05-25T03:51:52;41.10;;;19.92;;
69203;SDS011;56317;27.658;85.326;2023-05-25T03:54:20;37.25;;;19.15;;
69203;SDS011;56317;27.658;85.326;2023-05-25T03:56:47;38.25;;;20.95;;
69203;SDS011;56317;27.658;85.326;2023-05-25T03:59:14;33.25;;;20.20;;
69203;SDS011;56317;27.658;85.326;2023-05-25T04:01:43;31.83;;;18.95;;
69203;SDS011;56317;27.658;85.326;2023-05-25T04:04:10;34.20;;;20.70;;
69203;SDS011;56317;27.658;85.326;2023-05-25T04:06:38;33.58;;;20.40;;
69203;SDS011;56317;27.658;85.326;2023-05-25T04:09:07;52.33;;;24.85;;
69203;SDS011;56317;27.658;85.326;2023-05-25T04:11:34;43.05;;;26.17;;
69203;SDS011;56317;27.658;85.326;2023-05-25T04:14:01;41.85;;;25.95;;
69203;SDS011;56317;27.658;85.326;2023-05-25T04:16:29;47.70;;;27.40;;
69203;SDS011;56317;27.658;85.326;2023-05-25T04:18:56;53.42;;;29.92;;
69203;SDS011;56317;27.658;85.326;2023-05-25T04:21:23;48.58;;;28.30;;
69203;SDS011;56317;27.658;85.326;2023-05-25T04:23:51;56.35;;;31.42;;
69203;SDS011;56317;27.658;85.326;2023-05-25T04:26:25;53.17;;;29.55;;
69203;SDS011;56317;27.658;85.326;2023-05-25T04:28:53;56.03;;;29.73;;
69203;SDS011;56317;27.658;85.326;2023-05-25T04:31:26;42.42;;;22.45;;
69203;SDS011;56317;27.658;85.326;2023-05-25T04:33:56;27.60;;;16.70;;
69203;SDS011;56317;27.658;85.326;2023-05-25T04:36:27;32.28;;;18.15;;
69203;SDS011;56317;27.658;85.326;2023-05-25T04:38:58;31.67;;;18.75;;
69203;SDS011;56317;27.658;85.326;2023-05-25T04:41:29;35.33;;;20.08;;
69203;SDS011;56317;27.658;85.326;2023-05-25T04:43:56;36.78;;;20.08;;
69203;SDS011;56317;27.658;85.326;2023-05-25T04:46:23;37.85;;;20.52;;
69203;SDS011;56317;27.658;85.326;2023-05-25T04:48:51;34.92;;;17.92;;
69203;SDS011;56317;27.658;85.326;2023-05-25T04:51:18;40.63;;;18.02;;
69203;SDS011;56317;27.658;85.326;2023-05-25T04:53:47;28.67;;;16.95;;
69203;SDS011;56317;27.658;85.326;2023-05-25T04:56:15;31.83;;;17.70;;
69203;SDS011;56317;27.658;85.326;2023-05-25T04:58:43;29.33;;;17.30;;
69203;SDS011;56317;27.658;85.326;2023-05-25T05:01:12;31.55;;;18.88;;
69203;SDS011;56317;27.658;85.326;2023-05-25T05:03:46;36.13;;;20.08;;
69203;SDS011;56317;27.658;85.326;2023-05-25T05:06:14;34.53;;;18.80;;
69203;SDS011;56317;27.658;85.326;2023-05-25T05:08:43;32.97;;;20.27;;
69203;SDS011;56317;27.658;85.326;2023-05-25T05:11:14;31.80;;;19.93;;
69203;SDS011;56317;27.658;85.326;2023-05-25T05:13:48;33.42;;;17.58;;
69203;SDS011;56317;27.658;85.326;2023-05-25T05:16:17;32.80;;;19.23;;
69203;SDS011;56317;27.658;85.326;2023-05-25T05:18:45;30.10;;;17.50;;
69203;SDS011;56317;27.658;85.326;2023-05-25T05:21:14;37.33;;;20.80;;
69203;SDS011;56317;27.658;85.326;2023-05-25T05:23:42;34.65;;;18.85;;
69203;SDS011;56317;27.658;85.326;2023-05-25T05:26:12;44.13;;;19.10;;
69203;SDS011;56317;27.658;85.326;2023-05-25T05:28:40;26.40;;;17.02;;
69203;SDS011;56317;27.658;85.326;2023-05-25T05:31:07;29.80;;;19.02;;
69203;SDS011;56317;27.658;85.326;2023-05-25T05:33:36;33.15;;;18.95;;
69203;SDS011;56317;27.658;85.326;2023-05-25T05:36:04;22.52;;;14.35;;
69203;SDS011;56317;27.658;85.326;2023-05-25T05:38:31;23.48;;;13.32;;
69203;SDS011;56317;27.658;85.326;2023-05-25T05:40:58;25.90;;;14.65;;
69203;SDS011;56317;27.658;85.326;2023-05-25T05:43:27;29.27;;;14.18;;
69203;SDS011;56317;27.658;85.326;2023-05-25T05:45:54;25.50;;;14.13;;
69203;SDS011;56317;27.658;85.326;2023-05-25T05:48:22;24.45;;;14.23;;
69203;SDS011;56317;27.658;85.326;2023-05-25T05:50:49;26.00;;;13.55;;
69203;SDS011;56317;27.658;85.326;2023-05-25T05:53:17;28.35;;;14.48;;
69203;SDS011;56317;27.658;85.326;2023-05-25T05:55:47;25.98;;;14.32;;
69203;SDS011;56317;27.658;85.326;2023-05-25T05:58:18;27.63;;;14.32;;
69203;SDS011;56317;27.658;85.326;2023-05-25T06:00:45;25.88;;;14.80;;
69203;SDS011;56317;27.658;85.326;2023-05-25T06:03:14;31.13;;;15.68;;
69203;SDS011;56317;27.658;85.326;2023-05-25T06:05:41;29.58;;;17.23;;
69203;SDS011;56317;27.658;85.326;2023-05-25T06:08:08;37.17;;;18.83;;
69203;SDS011;56317;27.658;85.326;2023-05-25T06:10:36;29.52;;;18.08;;
69203;SDS011;56317;27.658;85.326;2023-05-25T06:13:05;29.83;;;18.67;;
69203;SDS011;56317;27.658;85.326;2023-05-25T06:15:32;29.73;;;16.40;;
69203;SDS011;56317;27.658;85.326;2023-05-25T06:18:00;41.00;;;20.40;;
69203;SDS011;56317;27.658;85.326;2023-05-25T06:20:28;41.17;;;22.05;;
69203;SDS011;56317;27.658;85.326;2023-05-25T06:22:55;36.03;;;21.83;;
69203;SDS011;56317;27.658;85.326;2023-05-25T06:25:22;38.75;;;22.10;;
69203;SDS011;56317;27.658;85.326;2023-05-25T06:27:50;29.30;;;16.60;;
69203;SDS011;56317;27.658;85.326;2023-05-25T06:30:20;38.03;;;19.30;;
69203;SDS011;56317;27.658;85.326;2023-05-25T06:32:48;39.33;;;19.15;;
69203;SDS011;56317;27.658;85.326;2023-05-25T06:35:15;34.00;;;21.38;;
69203;SDS011;56317;27.658;85.326;2023-05-25T06:37:45;32.42;;;19.35;;
69203;SDS011;56317;27.658;85.326;2023-05-25T06:40:16;31.52;;;19.40;;
69203;SDS011;56317;27.658;85.326;2023-05-25T06:42:43;40.13;;;22.08;;
69203;SDS011;56317;27.658;85.326;2023-05-25T06:45:11;46.83;;;22.95;;
69203;SDS011;56317;27.658;85.326;2023-05-25T06:47:39;44.33;;;24.77;;
69203;SDS011;56317;27.658;85.326;2023-05-25T06:50:07;40.85;;;26.42;;
69203;SDS011;56317;27.658;85.326;2023-05-25T06:52:35;30.48;;;20.60;;
69203;SDS011;56317;27.658;85.326;2023-05-25T06:55:03;38.83;;;25.25;;
69203;SDS011;56317;27.658;85.326;2023-05-25T06:57:30;51.58;;;27.98;;
69203;SDS011;56317;27.658;85.326;2023-05-25T06:59:58;33.15;;;21.33;;
69203;SDS011;56317;27.658;85.326;2023-05-25T07:02:26;34.35;;;20.38;;
69203;SDS011;56317;27.658;85.326;2023-05-25T07:04:53;33.03;;;21.20;;
69203;SDS011;56317;27.658;85.326;2023-05-25T07:07:20;30.70;;;20.17;;
69203;SDS011;56317;27.658;85.326;2023-05-25T07:09:48;27.27;;;18.77;;
69203;SDS011;56317;27.658;85.326;2023-05-25T07:12:15;30.75;;;18.55;;
69203;SDS011;56317;27.658;85.326;2023-05-25T07:14:43;29.92;;;18.63;;
69203;SDS011;56317;27.658;85.326;2023-05-25T07:17:13;32.67;;;19.55;;
69203;SDS011;56317;27.658;85.326;2023-05-25T07:19:40;33.70;;;19.55;;
69203;SDS011;56317;27.658;85.326;2023-05-25T07:22:08;32.47;;;19.02;;
69203;SDS011;56317;27.658;85.326;2023-05-25T07:24:35;32.75;;;19.70;;
69203;SDS011;56317;27.658;85.326;2023-05-25T07:27:03;42.35;;;20.70;;
69203;SDS011;56317;27.658;85.326;2023-05-25T07:29:32;51.95;;;23.10;;
69203;SDS011;56317;27.658;85.326;2023-05-25T07:32:00;47.58;;;19.48;;
69203;SDS011;56317;27.658;85.326;2023-05-25T07:34:27;29.35;;;18.60;;
69203;SDS011;56317;27.658;85.326;2023-05-25T07:36:54;44.03;;;21.45;;
69203;SDS011;56317;27.658;85.326;2023-05-25T07:39:22;38.50;;;20.92;;
69203;SDS011;56317;27.658;85.326;2023-05-25T07:41:49;63.38;;;19.75;;
69203;SDS011;56317;27.658;85.326;2023-05-25T07:44:16;41.90;;;20.27;;
69203;SDS011;56317;27.658;85.326;2023-05-25T07:46:44;41.20;;;20.33;;
69203;SDS011;56317;27.658;85.326;2023-05-25T07:49:11;47.13;;;19.75;;
69203;SDS011;56317;27.658;85.326;2023-05-25T07:51:41;43.58;;;21.05;;
69203;SDS011;56317;27.658;85.326;2023-05-25T07:54:11;44.47;;;24.38;;
69203;SDS011;56317;27.658;85.326;2023-05-25T07:56:39;47.85;;;26.35;;
69203;SDS011;56317;27.658;85.326;2023-05-25T07:59:07;56.55;;;26.48;;
69203;SDS011;56317;27.658;85.326;2023-05-25T08:01:35;53.35;;;26.00;;
69203;SDS011;56317;27.658;85.326;2023-05-25T08:04:03;46.78;;;25.58;;
69203;SDS011;56317;27.658;85.326;2023-05-25T08:06:30;42.28;;;24.35;;
69203;SDS011;56317;27.658;85.326;2023-05-25T08:08:58;36.28;;;23.48;;
69203;SDS011;56317;27.658;85.326;2023-05-25T08:11:30;40.97;;;23.58;;
69203;SDS011;56317;27.658;85.326;2023-05-25T08:14:04;27.55;;;16.08;;
69203;SDS011;56317;27.658;85.326;2023-05-25T08:16:32;23.55;;;16.38;;
69203;SDS011;56317;27.658;85.326;2023-05-25T08:18:59;29.45;;;17.60;;
69203;SDS011;56317;27.658;85.326;2023-05-25T08:21:26;27.48;;;15.50;;
69203;SDS011;56317;27.658;85.326;2023-05-25T08:23:54;21.10;;;14.52;;
69203;SDS011;56317;27.658;85.326;2023-05-25T08:26:21;25.77;;;15.88;;
69203;SDS011;56317;27.658;85.326;2023-05-25T08:28:48;22.80;;;14.02;;
69203;SDS011;56317;27.658;85.326;2023-05-25T08:31:15;17.80;;;10.63;;
69203;SDS011;56317;27.658;85.326;2023-05-25T08:33:43;16.42;;;10.25;;
69203;SDS011;56317;27.658;85.326;2023-05-25T08:36:11;15.68;;;7.43;;
69203;SDS011;56317;27.658;85.326;2023-05-25T08:38:39;20.00;;;8.30;;
69203;SDS011;56317;27.658;85.326;2023-05-25T08:41:06;22.45;;;9.68;;
69203;SDS011;56317;27.658;85.326;2023-05-25T08:43:33;17.92;;;8.40;;
69203;SDS011;56317;27.658;85.326;2023-05-25T08:46:04;14.60;;;7.30;;
69203;SDS011;56317;27.658;85.326;2023-05-25T08:48:33;21.00;;;8.23;;
69203;SDS011;56317;27.658;85.326;2023-05-25T08:51:07;13.52;;;6.88;;
69203;SDS011;56317;27.658;85.326;2023-05-25T08:53:39;14.60;;;8.13;;
69203;SDS011;56317;27.658;85.326;2023-05-25T08:56:20;15.98;;;8.82;;
69203;SDS011;56317;27.658;85.326;2023-05-25T08:59:12;17.45;;;8.57;;
69203;SDS011;56317;27.658;85.326;2023-05-25T09:04:43;13.82;;;8.90;;
69203;SDS011;56317;27.658;85.326;2023-05-25T09:07:11;19.58;;;8.98;;
69203;SDS011;56317;27.658;85.326;2023-05-25T09:09:39;19.35;;;10.57;;
69203;SDS011;56317;27.658;85.326;2023-05-25T09:12:07;19.48;;;10.13;;
69203;SDS011;56317;27.658;85.326;2023-05-25T09:14:34;15.10;;;10.73;;
69203;SDS011;56317;27.658;85.326;2023-05-25T09:17:02;19.85;;;10.93;;
69203;SDS011;56317;27.658;85.326;2023-05-25T09:19:30;18.50;;;10.18;;
69203;SDS011;56317;27.658;85.326;2023-05-25T09:21:59;22.98;;;9.57;;
69203;SDS011;56317;27.658;85.326;2023-05-25T09:24:26;13.95;;;7.40;;
69203;SDS011;56317;27.658;85.326;2023-05-25T09:26:54;10.70;;;6.20;;
69203;SDS011;56317;27.658;85.326;2023-05-25T09:29:21;15.40;;;6.45;;
69203;SDS011;56317;27.658;85.326;2023-05-25T09:31:49;16.35;;;7.85;;
69203;SDS011;56317;27.658;85.326;2023-05-25T09:34:16;12.70;;;7.00;;
69203;SDS011;56317;27.658;85.326;2023-05-25T09:36:45;13.75;;;6.90;;
69203;SDS011;56317;27.658;85.326;2023-05-25T09:39:12;16.90;;;9.73;;
69203;SDS011;56317;27.658;85.326;2023-05-25T09:41:41;17.25;;;10.82;;
69203;SDS011;56317;27.658;85.326;2023-05-25T09:44:08;16.42;;;8.77;;
69203;SDS011;56317;27.658;85.326;2023-05-25T09:46:36;16.55;;;9.57;;
69203;SDS011;56317;27.658;85.326;2023-05-25T09:49:07;16.05;;;8.38;;
69203;SDS011;56317;27.658;85.326;2023-05-25T09:51:34;11.32;;;7.47;;
69203;SDS011;56317;27.658;85.326;2023-05-25T09:54:03;12.10;;;6.60;;
69203;SDS011;56317;27.658;85.326;2023-05-25T09:56:33;11.98;;;7.50;;
69203;SDS011;56317;27.658;85.326;2023-05-25T09:59:01;11.40;;;6.80;;
69203;SDS011;56317;27.658;85.326;2023-05-25T10:01:30;10.98;;;6.45;;
69203;SDS011;56317;27.658;85.326;2023-05-25T10:03:59;12.63;;;7.20;;
69203;SDS011;56317;27.658;85.326;2023-05-25T10:06:26;10.18;;;7.13;;
69203;SDS011;56317;27.658;85.326;2023-05-25T10:08:55;13.80;;;7.50;;
69203;SDS011;56317;27.658;85.326;2023-05-25T10:11:23;13.63;;;7.05;;
69203;SDS011;56317;27.658;85.326;2023-05-25T10:13:52;10.30;;;6.57;;
69203;SDS011;56317;27.658;85.326;2023-05-25T10:16:25;10.18;;;6.13;;
69203;SDS011;56317;27.658;85.326;2023-05-25T10:18:57;10.20;;;6.30;;
69203;SDS011;56317;27.658;85.326;2023-05-25T10:21:32;8.68;;;5.85;;
69203;SDS011;56317;27.658;85.326;2023-05-25T10:24:03;8.90;;;5.40;;
69203;SDS011;56317;27.658;85.326;2023-05-25T10:26:39;10.00;;;6.07;;
69203;SDS011;56317;27.658;85.326;2023-05-25T10:29:12;9.32;;;5.80;;
69203;SDS011;56317;27.658;85.326;2023-05-25T10:31:39;8.80;;;5.60;;
69203;SDS011;56317;27.658;85.326;2023-05-25T10:34:07;10.32;;;5.82;;
69203;SDS011;56317;27.658;85.326;2023-05-25T10:36:36;13.65;;;6.32;;
69203;SDS011;56317;27.658;85.326;2023-05-25T10:39:10;27.25;;;7.50;;
69203;SDS011;56317;27.658;85.326;2023-05-25T10:41:37;17.75;;;7.45;;
69203;SDS011;56317;27.658;85.326;2023-05-25T10:44:05;15.60;;;7.28;;
69203;SDS011;56317;27.658;85.326;2023-05-25T10:46:33;20.15;;;7.60;;
69203;SDS011;56317;27.658;85.326;2023-05-25T10:49:01;22.27;;;8.13;;
69203;SDS011;56317;27.658;85.326;2023-05-25T10:51:39;24.85;;;8.55;;
69203;SDS011;56317;27.658;85.326;2023-05-25T10:54:08;27.63;;;9.60;;
69203;SDS011;56317;27.658;85.326;2023-05-25T10:57:06;22.08;;;8.10;;
69203;SDS011;56317;27.658;85.326;2023-05-25T10:59:39;14.52;;;6.85;;
69203;SDS011;56317;27.658;85.326;2023-05-25T11:02:09;16.17;;;7.55;;
69203;SDS011;56317;27.658;85.326;2023-05-25T11:04:37;27.48;;;10.05;;
69203;SDS011;56317;27.658;85.326;2023-05-25T11:07:06;23.42;;;8.90;;
69203;SDS011;56317;27.658;85.326;2023-05-25T11:09:40;25.10;;;11.32;;
69203;SDS011;56317;27.658;85.326;2023-05-25T11:12:18;27.65;;;11.02;;
69203;SDS011;56317;27.658;85.326;2023-05-25T11:18:08;19.23;;;8.95;;
69203;SDS011;56317;27.658;85.326;2023-05-25T11:20:39;21.55;;;10.23;;
69203;SDS011;56317;27.658;85.326;2023-05-25T11:23:39;21.25;;;10.23;;
69203;SDS011;56317;27.658;85.326;2023-05-25T11:26:04;18.23;;;9.88;;
69203;SDS011;56317;27.658;85.326;2023-05-25T11:28:32;23.83;;;14.18;;
69203;SDS011;56317;27.658;85.326;2023-05-25T11:30:59;19.88;;;12.45;;
69203;SDS011;56317;27.658;85.326;2023-05-25T11:33:29;19.95;;;11.60;;
69203;SDS011;56317;27.658;85.326;2023-05-25T11:35:57;15.65;;;9.93;;
69203;SDS011;56317;27.658;85.326;2023-05-25T11:38:30;18.17;;;9.90;;
69203;SDS011;56317;27.658;85.326;2023-05-25T11:40:58;15.77;;;9.85;;
69203;SDS011;56317;27.658;85.326;2023-05-25T11:43:28;17.50;;;11.02;;
69203;SDS011;56317;27.658;85.326;2023-05-25T11:45:56;13.88;;;10.02;;
69203;SDS011;56317;27.658;85.326;2023-05-25T11:48:24;16.45;;;9.32;;
69203;SDS011;56317;27.658;85.326;2023-05-25T11:51:04;16.70;;;10.07;;
69203;SDS011;56317;27.658;85.326;2023-05-25T11:53:32;14.43;;;9.40;;
69203;SDS011;56317;27.658;85.326;2023-05-25T11:55:59;22.27;;;11.90;;
69203;SDS011;56317;27.658;85.326;2023-05-25T11:58:31;19.55;;;11.90;;
69203;SDS011;56317;27.658;85.326;2023-05-25T12:03:50;22.98;;;13.98;;
69203;SDS011;56317;27.658;85.326;2023-05-25T12:06:27;22.08;;;13.63;;
69203;SDS011;56317;27.658;85.326;2023-05-25T12:08:58;20.63;;;13.48;;
69203;SDS011;56317;27.658;85.326;2023-05-25T12:11:33;24.33;;;12.98;;
69203;SDS011;56317;27.658;85.326;2023-05-25T12:14:10;20.75;;;13.40;;
69203;SDS011;56317;27.658;85.326;2023-05-25T12:16:37;23.38;;;15.07;;
69203;SDS011;56317;27.658;85.326;2023-05-25T12:19:07;37.17;;;20.02;;
69203;SDS011;56317;27.658;85.326;2023-05-25T12:21:37;36.60;;;23.63;;
69203;SDS011;56317;27.658;85.326;2023-05-25T12:24:06;41.67;;;24.27;;
69203;SDS011;56317;27.658;85.326;2023-05-25T12:29:46;41.50;;;26.40;;
69203;SDS011;56317;27.658;85.326;2023-05-25T12:32:14;31.42;;;18.15;;
69203;SDS011;56317;27.658;85.326;2023-05-25T12:34:41;35.58;;;17.13;;
69203;SDS011;56317;27.658;85.326;2023-05-25T12:37:18;35.90;;;16.17;;
69203;SDS011;56317;27.658;85.326;2023-05-25T12:39:46;27.70;;;14.60;;
69203;SDS011;56317;27.658;85.326;2023-05-25T12:42:15;39.60;;;18.83;;
69203;SDS011;56317;27.658;85.326;2023-05-25T12:44:43;30.73;;;17.10;;
69203;SDS011;56317;27.658;85.326;2023-05-25T12:47:12;46.47;;;17.00;;
69203;SDS011;56317;27.658;85.326;2023-05-25T12:49:42;41.25;;;18.67;;
69203;SDS011;56317;27.658;85.326;2023-05-25T12:52:10;54.78;;;19.38;;
69203;SDS011;56317;27.658;85.326;2023-05-25T12:54:57;40.20;;;18.60;;
69203;SDS011;56317;27.658;85.326;2023-05-25T12:57:32;41.58;;;17.58;;
69203;SDS011;56317;27.658;85.326;2023-05-25T13:00:00;46.38;;;16.63;;
69203;SDS011;56317;27.658;85.326;2023-05-25T13:02:29;49.08;;;17.20;;
69203;SDS011;56317;27.658;85.326;2023-05-25T13:04:59;30.10;;;15.27;;
69203;SDS011;56317;27.658;85.326;2023-05-25T13:07:26;44.78;;;17.60;;
69203;SDS011;56317;27.658;85.326;2023-05-25T13:09:54;43.97;;;17.08;;
69203;SDS011;56317;27.658;85.326;2023-05-25T13:12:21;56.72;;;18.40;;
69203;SDS011;56317;27.658;85.326;2023-05-25T13:14:48;55.45;;;22.65;;
69203;SDS011;56317;27.658;85.326;2023-05-25T13:17:19;43.00;;;25.73;;
69203;SDS011;56317;27.658;85.326;2023-05-25T13:19:46;51.45;;;29.27;;
69203;SDS011;56317;27.658;85.326;2023-05-25T13:22:13;63.38;;;32.63;;
69203;SDS011;56317;27.658;85.326;2023-05-25T13:24:40;82.90;;;33.70;;
69203;SDS011;56317;27.658;85.326;2023-05-25T13:27:07;70.90;;;31.35;;
69203;SDS011;56317;27.658;85.326;2023-05-25T13:29:37;53.75;;;32.00;;
69203;SDS011;56317;27.658;85.326;2023-05-25T13:32:04;58.65;;;32.00;;
69203;SDS011;56317;27.658;85.326;2023-05-25T13:34:32;52.13;;;30.13;;
69203;SDS011;56317;27.658;85.326;2023-05-25T13:36:59;72.55;;;36.75;;
69203;SDS011;56317;27.658;85.326;2023-05-25T13:39:26;72.20;;;37.72;;
69203;SDS011;56317;27.658;85.326;2023-05-25T13:41:53;90.20;;;36.63;;
69203;SDS011;56317;27.658;85.326;2023-05-25T13:44:21;86.40;;;42.05;;
69203;SDS011;56317;27.658;85.326;2023-05-25T13:46:48;93.70;;;43.40;;
69203;SDS011;56317;27.658;85.326;2023-05-25T13:49:15;72.47;;;34.05;;
69203;SDS011;56317;27.658;85.326;2023-05-25T13:51:43;85.45;;;35.65;;
69203;SDS011;56317;27.658;85.326;2023-05-25T13:54:11;75.57;;;33.65;;
69203;SDS011;56317;27.658;85.326;2023-05-25T13:56:38;57.10;;;29.55;;
69203;SDS011;56317;27.658;85.326;2023-05-25T13:59:06;60.35;;;30.33;;
69203;SDS011;56317;27.658;85.326;2023-05-25T14:01:33;57.03;;;30.27;;
69203;SDS011;56317;27.658;85.326;2023-05-25T14:04:01;66.53;;;33.40;;
69203;SDS011;56317;27.658;85.326;2023-05-25T14:06:29;77.30;;;36.67;;
69203;SDS011;56317;27.658;85.326;2023-05-25T14:08:56;79.78;;;39.90;;
69203;SDS011;56317;27.658;85.326;2023-05-25T14:11:23;79.90;;;35.53;;
69203;SDS011;56317;27.658;85.326;2023-05-25T14:13:51;64.63;;;31.45;;
69203;SDS011;56317;27.658;85.326;2023-05-25T14:16:18;76.95;;;34.53;;
69203;SDS011;56317;27.658;85.326;2023-05-25T14:18:45;76.65;;;32.38;;
69203;SDS011;56317;27.658;85.326;2023-05-25T14:21:12;59.75;;;30.55;;
69203;SDS011;56317;27.658;85.326;2023-05-25T14:23:42;64.65;;;29.73;;
69203;SDS011;56317;27.658;85.326;2023-05-25T14:26:09;58.38;;;26.95;;
69203;SDS011;56317;27.658;85.326;2023-05-25T14:28:37;54.47;;;26.30;;
69203;SDS011;56317;27.658;85.326;2023-05-25T14:31:04;46.60;;;23.85;;
69203;SDS011;56317;27.658;85.326;2023-05-25T14:33:31;55.15;;;25.00;;
69203;SDS011;56317;27.658;85.326;2023-05-25T14:35:58;44.78;;;23.25;;